sensor_id;sensor_type;location;lat;lon;timestamp;P1;durP1;ratioP1;P2;durP2;ratioP2
40955;SDS011;26687;48.254;11.454;2022-07-01T00:01:46;5.90;;;2.90;;
40955;SDS011;26687;48.254;11.454;2022-07-01T00:04:47;6.78;;;3.22;;
40955;SDS011;26687;48.254;11.454;2022-07-01T00:07:48;4.55;;;3.50;;
40955;SDS011;26687;48.254;11.454;2022-07-01T00:10:48;4.22;;;3.25;;
40955;SDS011;26687;48.254;11.454;2022-07-01T00:13:49;4.07;;;3.35;;
40955;SDS011;26687;48.254;11.454;2022-07-01T00:16:49;4.65;;;3.30;;
40955;SDS011;26687;48.254;11.454;2022-07-01T00:19:50;5.88;;;3.10;;
40955;SDS011;26687;48.254;11.454;2022-07-01T00:22:50;3.40;;;3.10;;
40955;SDS011;26687;48.254;11.454;2022-07-01T00:25:50;5.23;;;3.40;;
40955;SDS011;26687;48.254;11.454;2022-07-01T00:28:50;4.35;;;3.00;;
40955;SDS011;26687;48.254;11.454;2022-07-01T00:31:51;4.43;;;2.93;;
40955;SDS011;26687;48.254;11.454;2022-07-01T00:34:51;3.80;;;2.80;;
40955;SDS011;26687;48.254;11.454;2022-07-01T00:37:51;3.45;;;2.65;;
40955;SDS011;26687;48.254;11.454;2022-07-01T00:40:52;2.70;;;2.50;;
40955;SDS011;26687;48.254;11.454;2022-07-01T00:43:53;2.85;;;2.30;;
40955;SDS011;26687;48.254;11.454;2022-07-01T00:46:53;2.50;;;2.20;;
40955;SDS011;26687;48.254;11.454;2022-07-01T00:49:53;2.08;;;1.80;;
40955;SDS011;26687;48.254;11.454;2022-07-01T00:52:54;2.28;;;1.75;;
40955;SDS011;26687;48.254;11.454;2022-07-01T00:55:54;2.60;;;1.97;;
40955;SDS011;26687;48.254;11.454;2022-07-01T00:58:54;2.00;;;1.90;;
40955;SDS011;26687;48.254;11.454;2022-07-01T01:01:55;2.92;;;1.65;;
40955;SDS011;26687;48.254;11.454;2022-07-01T01:04:55;2.40;;;1.60;;
40955;SDS011;26687;48.254;11.454;2022-07-01T01:07:55;2.73;;;1.73;;
40955;SDS011;26687;48.254;11.454;2022-07-01T01:10:55;2.20;;;1.40;;
40955;SDS011;26687;48.254;11.454;2022-07-01T01:13:55;1.10;;;1.00;;
40955;SDS011;26687;48.254;11.454;2022-07-01T01:16:56;1.40;;;1.20;;
40955;SDS011;26687;48.254;11.454;2022-07-01T01:19:56;1.73;;;0.90;;
40955;SDS011;26687;48.254;11.454;2022-07-01T01:22:56;1.87;;;1.00;;
40955;SDS011;26687;48.254;11.454;2022-07-01T01:25:56;0.70;;;0.70;;
40955;SDS011;26687;48.254;11.454;2022-07-01T01:28:57;1.33;;;0.60;;
40955;SDS011;26687;48.254;11.454;2022-07-01T01:31:57;0.90;;;0.50;;
40955;SDS011;26687;48.254;11.454;2022-07-01T01:34:57;0.67;;;0.50;;
40955;SDS011;26687;48.254;11.454;2022-07-01T01:37:58;1.05;;;0.50;;
40955;SDS011;26687;48.254;11.454;2022-07-01T01:40:58;1.27;;;0.60;;
40955;SDS011;26687;48.254;11.454;2022-07-01T01:43:58;1.05;;;0.57;;
40955;SDS011;26687;48.254;11.454;2022-07-01T01:46:58;1.27;;;0.52;;
40955;SDS011;26687;48.254;11.454;2022-07-01T01:49:59;2.13;;;0.60;;
40955;SDS011;26687;48.254;11.454;2022-07-01T01:52:59;1.10;;;0.50;;
40955;SDS011;26687;48.254;11.454;2022-07-01T01:55:59;0.70;;;0.47;;
40955;SDS011;26687;48.254;11.454;2022-07-01T01:58:59;1.30;;;0.40;;
40955;SDS011;26687;48.254;11.454;2022-07-01T02:01:59;1.33;;;0.32;;
40955;SDS011;26687;48.254;11.454;2022-07-01T02:04:59;0.40;;;0.23;;
40955;SDS011;26687;48.254;11.454;2022-07-01T02:08:00;0.57;;;0.50;;
40955;SDS011;26687;48.254;11.454;2022-07-01T02:11:00;1.27;;;0.30;;
40955;SDS011;26687;48.254;11.454;2022-07-01T02:14:00;0.53;;;0.33;;
40955;SDS011;26687;48.254;11.454;2022-07-01T02:17:00;1.35;;;0.30;;
40955;SDS011;26687;48.254;11.454;2022-07-01T02:20:00;1.08;;;0.40;;
40955;SDS011;26687;48.254;11.454;2022-07-01T02:23:00;1.08;;;0.40;;
40955;SDS011;26687;48.254;11.454;2022-07-01T02:26:01;0.52;;;0.35;;
40955;SDS011;26687;48.254;11.454;2022-07-01T02:29:01;1.03;;;0.30;;
40955;SDS011;26687;48.254;11.454;2022-07-01T02:32:01;0.93;;;0.40;;
40955;SDS011;26687;48.254;11.454;2022-07-01T02:35:01;0.73;;;0.40;;
40955;SDS011;26687;48.254;11.454;2022-07-01T02:38:02;0.47;;;0.40;;
40955;SDS011;26687;48.254;11.454;2022-07-01T02:41:02;0.57;;;0.57;;
40955;SDS011;26687;48.254;11.454;2022-07-01T02:44:03;0.82;;;0.50;;
40955;SDS011;26687;48.254;11.454;2022-07-01T02:47:03;0.50;;;0.50;;
40955;SDS011;26687;48.254;11.454;2022-07-01T02:50:04;2.45;;;0.40;;
40955;SDS011;26687;48.254;11.454;2022-07-01T02:53:04;2.60;;;0.60;;
40955;SDS011;26687;48.254;11.454;2022-07-01T02:56:04;0.65;;;0.60;;
40955;SDS011;26687;48.254;11.454;2022-07-01T02:59:04;1.10;;;0.60;;
40955;SDS011;26687;48.254;11.454;2022-07-01T03:02:04;0.68;;;0.50;;
40955;SDS011;26687;48.254;11.454;2022-07-01T03:05:05;0.88;;;0.60;;
40955;SDS011;26687;48.254;11.454;2022-07-01T03:08:05;1.63;;;0.60;;
40955;SDS011;26687;48.254;11.454;2022-07-01T03:11:05;0.63;;;0.50;;
40955;SDS011;26687;48.254;11.454;2022-07-01T03:14:06;1.00;;;0.60;;
40955;SDS011;26687;48.254;11.454;2022-07-01T03:17:06;1.17;;;0.60;;
40955;SDS011;26687;48.254;11.454;2022-07-01T03:20:07;0.70;;;0.50;;
40955;SDS011;26687;48.254;11.454;2022-07-01T03:23:07;0.57;;;0.57;;
40955;SDS011;26687;48.254;11.454;2022-07-01T03:26:07;2.33;;;0.53;;
40955;SDS011;26687;48.254;11.454;2022-07-01T03:29:08;0.70;;;0.60;;
40955;SDS011;26687;48.254;11.454;2022-07-01T03:32:08;1.30;;;0.57;;
40955;SDS011;26687;48.254;11.454;2022-07-01T03:35:09;2.15;;;0.63;;
40955;SDS011;26687;48.254;11.454;2022-07-01T03:38:28;1.38;;;0.70;;
40955;SDS011;26687;48.254;11.454;2022-07-01T03:41:28;1.20;;;0.90;;
40955;SDS011;26687;48.254;11.454;2022-07-01T03:44:28;0.97;;;0.80;;
40955;SDS011;26687;48.254;11.454;2022-07-01T03:47:29;1.13;;;0.70;;
40955;SDS011;26687;48.254;11.454;2022-07-01T03:50:29;1.35;;;0.80;;
40955;SDS011;26687;48.254;11.454;2022-07-01T03:53:29;0.60;;;0.60;;
40955;SDS011;26687;48.254;11.454;2022-07-01T03:56:48;1.75;;;0.88;;
40955;SDS011;26687;48.254;11.454;2022-07-01T03:59:48;1.38;;;0.90;;
40955;SDS011;26687;48.254;11.454;2022-07-01T04:02:48;1.50;;;0.82;;
40955;SDS011;26687;48.254;11.454;2022-07-01T04:05:48;1.08;;;0.80;;
40955;SDS011;26687;48.254;11.454;2022-07-01T04:08:49;1.48;;;0.80;;
40955;SDS011;26687;48.254;11.454;2022-07-01T04:11:49;1.25;;;0.70;;
40955;SDS011;26687;48.254;11.454;2022-07-01T04:14:50;0.68;;;0.60;;
40955;SDS011;26687;48.254;11.454;2022-07-01T04:17:50;0.80;;;0.80;;
40955;SDS011;26687;48.254;11.454;2022-07-01T04:20:51;0.90;;;0.63;;
40955;SDS011;26687;48.254;11.454;2022-07-01T04:24:10;1.20;;;0.93;;
40955;SDS011;26687;48.254;11.454;2022-07-01T04:27:10;1.88;;;0.80;;
40955;SDS011;26687;48.254;11.454;2022-07-01T04:30:11;1.02;;;0.80;;
40955;SDS011;26687;48.254;11.454;2022-07-01T04:33:12;2.25;;;0.70;;
40955;SDS011;26687;48.254;11.454;2022-07-01T04:36:13;1.48;;;0.70;;
40955;SDS011;26687;48.254;11.454;2022-07-01T04:39:13;1.83;;;0.63;;
40955;SDS011;26687;48.254;11.454;2022-07-01T04:42:13;1.92;;;0.80;;
40955;SDS011;26687;48.254;11.454;2022-07-01T04:45:15;1.35;;;0.80;;
40955;SDS011;26687;48.254;11.454;2022-07-01T04:48:15;0.95;;;0.80;;
40955;SDS011;26687;48.254;11.454;2022-07-01T04:51:15;0.70;;;0.70;;
40955;SDS011;26687;48.254;11.454;2022-07-01T04:54:15;0.60;;;0.60;;
40955;SDS011;26687;48.254;11.454;2022-07-01T04:57:15;1.73;;;0.60;;
40955;SDS011;26687;48.254;11.454;2022-07-01T05:00:15;1.15;;;0.70;;
40955;SDS011;26687;48.254;11.454;2022-07-01T05:03:16;0.60;;;0.60;;
40955;SDS011;26687;48.254;11.454;2022-07-01T05:06:16;1.20;;;0.70;;
40955;SDS011;26687;48.254;11.454;2022-07-01T05:09:17;0.73;;;0.70;;
40955;SDS011;26687;48.254;11.454;2022-07-01T05:12:17;1.15;;;0.80;;
40955;SDS011;26687;48.254;11.454;2022-07-01T05:15:17;1.02;;;0.60;;
40955;SDS011;26687;48.254;11.454;2022-07-01T05:18:17;0.88;;;0.68;;
40955;SDS011;26687;48.254;11.454;2022-07-01T05:21:36;1.25;;;0.70;;
40955;SDS011;26687;48.254;11.454;2022-07-01T05:24:55;1.00;;;0.93;;
40955;SDS011;26687;48.254;11.454;2022-07-01T05:27:55;2.20;;;0.93;;
40955;SDS011;26687;48.254;11.454;2022-07-01T05:30:55;1.85;;;1.00;;
40955;SDS011;26687;48.254;11.454;2022-07-01T05:33:55;1.30;;;0.95;;
40955;SDS011;26687;48.254;11.454;2022-07-01T05:36:56;1.60;;;0.90;;
40955;SDS011;26687;48.254;11.454;2022-07-01T05:39:56;1.05;;;0.65;;
40955;SDS011;26687;48.254;11.454;2022-07-01T05:42:57;2.40;;;0.90;;
40955;SDS011;26687;48.254;11.454;2022-07-01T05:45:57;0.80;;;0.80;;
40955;SDS011;26687;48.254;11.454;2022-07-01T05:48:57;0.93;;;0.68;;
40955;SDS011;26687;48.254;11.454;2022-07-01T05:51:57;1.27;;;0.70;;
40955;SDS011;26687;48.254;11.454;2022-07-01T05:54:57;2.33;;;0.88;;
40955;SDS011;26687;48.254;11.454;2022-07-01T05:57:57;0.90;;;0.77;;
40955;SDS011;26687;48.254;11.454;2022-07-01T06:00:58;0.82;;;0.70;;
40955;SDS011;26687;48.254;11.454;2022-07-01T06:03:58;1.83;;;1.07;;
40955;SDS011;26687;48.254;11.454;2022-07-01T06:06:58;0.93;;;0.70;;
40955;SDS011;26687;48.254;11.454;2022-07-01T06:09:58;1.55;;;0.77;;
40955;SDS011;26687;48.254;11.454;2022-07-01T06:12:58;2.08;;;0.98;;
40955;SDS011;26687;48.254;11.454;2022-07-01T06:15:58;2.05;;;0.70;;
40955;SDS011;26687;48.254;11.454;2022-07-01T06:18:58;1.25;;;0.68;;
40955;SDS011;26687;48.254;11.454;2022-07-01T06:21:59;0.88;;;0.60;;
40955;SDS011;26687;48.254;11.454;2022-07-01T06:24:59;1.05;;;0.88;;
40955;SDS011;26687;48.254;11.454;2022-07-01T06:27:59;0.90;;;0.80;;
40955;SDS011;26687;48.254;11.454;2022-07-01T06:30:59;1.30;;;0.90;;
40955;SDS011;26687;48.254;11.454;2022-07-01T06:34:00;2.00;;;0.70;;
40955;SDS011;26687;48.254;11.454;2022-07-01T06:37:00;1.98;;;0.65;;
40955;SDS011;26687;48.254;11.454;2022-07-01T06:40:05;0.60;;;0.60;;
40955;SDS011;26687;48.254;11.454;2022-07-01T06:43:05;1.13;;;0.90;;
40955;SDS011;26687;48.254;11.454;2022-07-01T06:46:05;1.15;;;0.70;;
40955;SDS011;26687;48.254;11.454;2022-07-01T06:49:05;1.70;;;0.85;;
40955;SDS011;26687;48.254;11.454;2022-07-01T06:52:05;1.25;;;1.00;;
40955;SDS011;26687;48.254;11.454;2022-07-01T06:55:06;1.55;;;0.85;;
40955;SDS011;26687;48.254;11.454;2022-07-01T06:58:06;5.10;;;1.25;;
40955;SDS011;26687;48.254;11.454;2022-07-01T07:01:07;3.28;;;1.10;;
40955;SDS011;26687;48.254;11.454;2022-07-01T07:04:07;1.47;;;1.20;;
40955;SDS011;26687;48.254;11.454;2022-07-01T07:07:07;1.50;;;1.40;;
40955;SDS011;26687;48.254;11.454;2022-07-01T07:10:08;2.67;;;1.60;;
40955;SDS011;26687;48.254;11.454;2022-07-01T07:13:08;2.45;;;1.83;;
40955;SDS011;26687;48.254;11.454;2022-07-01T07:16:08;2.30;;;1.80;;
40955;SDS011;26687;48.254;11.454;2022-07-01T07:19:08;1.70;;;1.60;;
40955;SDS011;26687;48.254;11.454;2022-07-01T07:22:10;1.70;;;1.60;;
40955;SDS011;26687;48.254;11.454;2022-07-01T07:25:10;2.70;;;1.52;;
40955;SDS011;26687;48.254;11.454;2022-07-01T07:28:10;1.60;;;1.27;;
40955;SDS011;26687;48.254;11.454;2022-07-01T07:31:10;3.17;;;1.30;;
40955;SDS011;26687;48.254;11.454;2022-07-01T07:34:10;1.50;;;1.40;;
40955;SDS011;26687;48.254;11.454;2022-07-01T07:37:11;1.58;;;1.10;;
40955;SDS011;26687;48.254;11.454;2022-07-01T07:40:11;2.70;;;1.08;;
40955;SDS011;26687;48.254;11.454;2022-07-01T07:43:12;0.93;;;0.93;;
40955;SDS011;26687;48.254;11.454;2022-07-01T07:46:12;1.30;;;0.73;;
40955;SDS011;26687;48.254;11.454;2022-07-01T07:49:12;1.23;;;0.70;;
40955;SDS011;26687;48.254;11.454;2022-07-01T07:52:12;1.73;;;0.60;;
40955;SDS011;26687;48.254;11.454;2022-07-01T07:55:12;0.50;;;0.40;;
40955;SDS011;26687;48.254;11.454;2022-07-01T07:58:13;2.17;;;0.23;;
40955;SDS011;26687;48.254;11.454;2022-07-01T08:01:13;1.97;;;0.30;;
40955;SDS011;26687;48.254;11.454;2022-07-01T08:04:13;1.23;;;0.38;;
40955;SDS011;26687;48.254;11.454;2022-07-01T08:07:13;1.20;;;0.33;;
40955;SDS011;26687;48.254;11.454;2022-07-01T08:10:13;0.57;;;0.15;;
40955;SDS011;26687;48.254;11.454;2022-07-01T08:13:14;0.90;;;0.30;;
40955;SDS011;26687;48.254;11.454;2022-07-01T08:16:14;0.20;;;0.20;;
40955;SDS011;26687;48.254;11.454;2022-07-01T08:19:14;0.47;;;0.30;;
40955;SDS011;26687;48.254;11.454;2022-07-01T08:22:14;0.22;;;0.20;;
40955;SDS011;26687;48.254;11.454;2022-07-01T08:25:14;0.30;;;0.20;;
40955;SDS011;26687;48.254;11.454;2022-07-01T08:28:15;1.70;;;0.40;;
40955;SDS011;26687;48.254;11.454;2022-07-01T08:31:15;1.05;;;0.30;;
40955;SDS011;26687;48.254;11.454;2022-07-01T08:34:15;0.50;;;0.30;;
40955;SDS011;26687;48.254;11.454;2022-07-01T08:37:15;0.50;;;0.35;;
40955;SDS011;26687;48.254;11.454;2022-07-01T08:40:16;1.80;;;0.38;;
40955;SDS011;26687;48.254;11.454;2022-07-01T08:43:16;0.65;;;0.50;;
40955;SDS011;26687;48.254;11.454;2022-07-01T08:46:16;1.45;;;0.40;;
40955;SDS011;26687;48.254;11.454;2022-07-01T08:49:16;0.40;;;0.23;;
40955;SDS011;26687;48.254;11.454;2022-07-01T08:52:17;0.98;;;0.38;;
40955;SDS011;26687;48.254;11.454;2022-07-01T08:55:18;0.50;;;0.40;;
40955;SDS011;26687;48.254;11.454;2022-07-01T08:58:18;1.85;;;0.55;;
40955;SDS011;26687;48.254;11.454;2022-07-01T09:01:25;0.38;;;0.35;;
40955;SDS011;26687;48.254;11.454;2022-07-01T09:04:25;0.75;;;0.50;;
40955;SDS011;26687;48.254;11.454;2022-07-01T09:07:30;0.77;;;0.50;;
40955;SDS011;26687;48.254;11.454;2022-07-01T09:10:31;2.10;;;0.40;;
40955;SDS011;26687;48.254;11.454;2022-07-01T09:13:33;0.75;;;0.50;;
40955;SDS011;26687;48.254;11.454;2022-07-01T09:16:44;0.47;;;0.40;;
40955;SDS011;26687;48.254;11.454;2022-07-01T09:19:48;3.72;;;0.65;;
40955;SDS011;26687;48.254;11.454;2022-07-01T09:26:01;0.45;;;0.40;;
40955;SDS011;26687;48.254;11.454;2022-07-01T09:29:01;0.45;;;0.40;;
40955;SDS011;26687;48.254;11.454;2022-07-01T09:32:03;0.95;;;0.52;;
40955;SDS011;26687;48.254;11.454;2022-07-01T09:35:04;0.50;;;0.50;;
40955;SDS011;26687;48.254;11.454;2022-07-01T09:38:04;0.45;;;0.45;;
40955;SDS011;26687;48.254;11.454;2022-07-01T09:41:05;0.45;;;0.30;;
40955;SDS011;26687;48.254;11.454;2022-07-01T09:44:11;0.43;;;0.43;;
40955;SDS011;26687;48.254;11.454;2022-07-01T09:47:11;0.93;;;0.52;;
40955;SDS011;26687;48.254;11.454;2022-07-01T09:50:11;0.68;;;0.30;;
40955;SDS011;26687;48.254;11.454;2022-07-01T09:53:12;1.90;;;0.50;;
40955;SDS011;26687;48.254;11.454;2022-07-01T09:56:12;1.35;;;0.45;;
40955;SDS011;26687;48.254;11.454;2022-07-01T09:59:13;0.57;;;0.57;;
40955;SDS011;26687;48.254;11.454;2022-07-01T10:02:13;0.35;;;0.32;;
40955;SDS011;26687;48.254;11.454;2022-07-01T10:05:14;0.50;;;0.50;;
40955;SDS011;26687;48.254;11.454;2022-07-01T10:14:37;0.43;;;0.43;;
40955;SDS011;26687;48.254;11.454;2022-07-01T10:17:42;0.82;;;0.50;;
40955;SDS011;26687;48.254;11.454;2022-07-01T10:20:45;0.73;;;0.38;;
40955;SDS011;26687;48.254;11.454;2022-07-01T10:23:46;1.10;;;0.45;;
40955;SDS011;26687;48.254;11.454;2022-07-01T10:26:48;1.05;;;0.43;;
40955;SDS011;26687;48.254;11.454;2022-07-01T10:29:48;0.30;;;0.30;;
40955;SDS011;26687;48.254;11.454;2022-07-01T10:32:49;0.40;;;0.40;;
40955;SDS011;26687;48.254;11.454;2022-07-01T10:35:51;0.30;;;0.30;;
40955;SDS011;26687;48.254;11.454;2022-07-01T10:42:01;0.68;;;0.40;;
40955;SDS011;26687;48.254;11.454;2022-07-01T10:45:04;0.40;;;0.40;;
40955;SDS011;26687;48.254;11.454;2022-07-01T10:48:18;0.28;;;0.28;;
40955;SDS011;26687;48.254;11.454;2022-07-01T10:51:41;1.13;;;0.40;;
40955;SDS011;26687;48.254;11.454;2022-07-01T10:57:45;0.65;;;0.50;;
40955;SDS011;26687;48.254;11.454;2022-07-01T11:00:46;0.65;;;0.40;;
40955;SDS011;26687;48.254;11.454;2022-07-01T11:03:46;1.27;;;0.45;;
40955;SDS011;26687;48.254;11.454;2022-07-01T11:06:46;1.13;;;0.40;;
40955;SDS011;26687;48.254;11.454;2022-07-01T11:09:47;0.50;;;0.50;;
40955;SDS011;26687;48.254;11.454;2022-07-01T11:12:47;0.73;;;0.30;;
40955;SDS011;26687;48.254;11.454;2022-07-01T11:15:49;0.82;;;0.30;;
40955;SDS011;26687;48.254;11.454;2022-07-01T11:18:50;0.50;;;0.50;;
40955;SDS011;26687;48.254;11.454;2022-07-01T11:21:50;0.70;;;0.50;;
40955;SDS011;26687;48.254;11.454;2022-07-01T11:24:51;0.60;;;0.50;;
40955;SDS011;26687;48.254;11.454;2022-07-01T11:27:52;0.57;;;0.57;;
40955;SDS011;26687;48.254;11.454;2022-07-01T11:31:01;0.98;;;0.40;;
40955;SDS011;26687;48.254;11.454;2022-07-01T11:34:02;1.05;;;0.63;;
40955;SDS011;26687;48.254;11.454;2022-07-01T11:37:08;0.77;;;0.60;;
40955;SDS011;26687;48.254;11.454;2022-07-01T11:40:27;0.55;;;0.55;;
40955;SDS011;26687;48.254;11.454;2022-07-01T11:43:28;0.50;;;0.50;;
40955;SDS011;26687;48.254;11.454;2022-07-01T11:46:29;1.48;;;0.75;;
40955;SDS011;26687;48.254;11.454;2022-07-01T11:49:29;2.17;;;0.90;;
40955;SDS011;26687;48.254;11.454;2022-07-01T11:52:29;0.80;;;0.70;;
40955;SDS011;26687;48.254;11.454;2022-07-01T11:55:29;0.60;;;0.60;;
40955;SDS011;26687;48.254;11.454;2022-07-01T11:58:46;1.63;;;0.70;;
40955;SDS011;26687;48.254;11.454;2022-07-01T12:01:53;1.13;;;0.70;;
40955;SDS011;26687;48.254;11.454;2022-07-01T12:04:54;0.57;;;0.57;;
40955;SDS011;26687;48.254;11.454;2022-07-01T12:07:54;2.38;;;0.77;;
40955;SDS011;26687;48.254;11.454;2022-07-01T12:10:54;0.60;;;0.60;;
40955;SDS011;26687;48.254;11.454;2022-07-01T12:16:59;0.88;;;0.82;;
40955;SDS011;26687;48.254;11.454;2022-07-01T12:19:59;1.00;;;0.82;;
40955;SDS011;26687;48.254;11.454;2022-07-01T12:23:12;1.42;;;0.80;;
40955;SDS011;26687;48.254;11.454;2022-07-01T12:26:12;0.77;;;0.77;;
40955;SDS011;26687;48.254;11.454;2022-07-01T12:29:12;0.90;;;0.90;;
40955;SDS011;26687;48.254;11.454;2022-07-01T12:32:15;1.17;;;1.10;;
40955;SDS011;26687;48.254;11.454;2022-07-01T12:35:22;0.98;;;0.82;;
40955;SDS011;26687;48.254;11.454;2022-07-01T12:38:34;1.08;;;1.00;;
40955;SDS011;26687;48.254;11.454;2022-07-01T12:41:35;0.80;;;0.80;;
40955;SDS011;26687;48.254;11.454;2022-07-01T12:44:43;1.02;;;1.00;;
40955;SDS011;26687;48.254;11.454;2022-07-01T12:47:45;0.80;;;0.80;;
40955;SDS011;26687;48.254;11.454;2022-07-01T12:50:45;0.88;;;0.85;;
40955;SDS011;26687;48.254;11.454;2022-07-01T12:53:46;1.23;;;1.00;;
40955;SDS011;26687;48.254;11.454;2022-07-01T12:56:46;1.10;;;1.00;;
40955;SDS011;26687;48.254;11.454;2022-07-01T12:59:46;1.00;;;0.98;;
40955;SDS011;26687;48.254;11.454;2022-07-01T13:02:46;2.33;;;1.20;;
40955;SDS011;26687;48.254;11.454;2022-07-01T13:05:46;1.40;;;1.30;;
40955;SDS011;26687;48.254;11.454;2022-07-01T13:08:47;1.50;;;1.40;;
40955;SDS011;26687;48.254;11.454;2022-07-01T13:11:47;1.30;;;1.17;;
40955;SDS011;26687;48.254;11.454;2022-07-01T13:14:47;1.83;;;1.42;;
40955;SDS011;26687;48.254;11.454;2022-07-01T13:17:48;1.47;;;1.37;;
40955;SDS011;26687;48.254;11.454;2022-07-01T13:20:48;1.33;;;1.23;;
40955;SDS011;26687;48.254;11.454;2022-07-01T13:23:48;1.40;;;1.30;;
40955;SDS011;26687;48.254;11.454;2022-07-01T13:26:49;2.05;;;1.63;;
40955;SDS011;26687;48.254;11.454;2022-07-01T13:29:49;1.10;;;1.10;;
40955;SDS011;26687;48.254;11.454;2022-07-01T13:32:49;1.08;;;1.00;;
40955;SDS011;26687;48.254;11.454;2022-07-01T13:35:53;2.22;;;1.20;;
40955;SDS011;26687;48.254;11.454;2022-07-01T13:38:53;1.30;;;1.20;;
40955;SDS011;26687;48.254;11.454;2022-07-01T13:41:53;1.40;;;1.30;;
40955;SDS011;26687;48.254;11.454;2022-07-01T13:44:56;1.70;;;1.60;;
40955;SDS011;26687;48.254;11.454;2022-07-01T13:47:56;1.48;;;1.38;;
40955;SDS011;26687;48.254;11.454;2022-07-01T13:50:56;1.55;;;1.45;;
40955;SDS011;26687;48.254;11.454;2022-07-01T13:53:56;1.40;;;1.30;;
40955;SDS011;26687;48.254;11.454;2022-07-01T13:59:59;1.70;;;1.45;;
40955;SDS011;26687;48.254;11.454;2022-07-01T14:03:00;1.30;;;1.13;;
40955;SDS011;26687;48.254;11.454;2022-07-01T14:06:00;1.30;;;1.15;;
40955;SDS011;26687;48.254;11.454;2022-07-01T14:09:00;2.07;;;1.70;;
40955;SDS011;26687;48.254;11.454;2022-07-01T14:12:00;1.60;;;1.15;;
40955;SDS011;26687;48.254;11.454;2022-07-01T14:15:00;1.40;;;1.25;;
40955;SDS011;26687;48.254;11.454;2022-07-01T14:18:01;1.27;;;1.20;;
40955;SDS011;26687;48.254;11.454;2022-07-01T14:21:02;1.17;;;1.08;;
40955;SDS011;26687;48.254;11.454;2022-07-01T14:24:03;1.10;;;1.00;;
40955;SDS011;26687;48.254;11.454;2022-07-01T14:27:03;1.50;;;1.20;;
40955;SDS011;26687;48.254;11.454;2022-07-01T14:30:04;1.40;;;0.80;;
40955;SDS011;26687;48.254;11.454;2022-07-01T14:33:05;1.33;;;1.23;;
40955;SDS011;26687;48.254;11.454;2022-07-01T14:36:06;0.98;;;0.90;;
40955;SDS011;26687;48.254;11.454;2022-07-01T14:39:06;1.30;;;1.30;;
40955;SDS011;26687;48.254;11.454;2022-07-01T14:42:06;2.00;;;1.37;;
40955;SDS011;26687;48.254;11.454;2022-07-01T14:45:07;1.20;;;1.10;;
40955;SDS011;26687;48.254;11.454;2022-07-01T14:48:07;1.40;;;1.30;;
40955;SDS011;26687;48.254;11.454;2022-07-01T14:51:07;2.00;;;1.48;;
40955;SDS011;26687;48.254;11.454;2022-07-01T14:54:08;1.50;;;1.40;;
40955;SDS011;26687;48.254;11.454;2022-07-01T14:57:08;1.73;;;1.63;;
40955;SDS011;26687;48.254;11.454;2022-07-01T15:00:08;1.60;;;1.50;;
40955;SDS011;26687;48.254;11.454;2022-07-01T15:03:08;1.33;;;1.23;;
40955;SDS011;26687;48.254;11.454;2022-07-01T15:06:09;1.95;;;1.50;;
40955;SDS011;26687;48.254;11.454;2022-07-01T15:09:09;1.23;;;1.13;;
40955;SDS011;26687;48.254;11.454;2022-07-01T15:12:11;1.40;;;1.17;;
40955;SDS011;26687;48.254;11.454;2022-07-01T15:15:11;1.83;;;1.30;;
40955;SDS011;26687;48.254;11.454;2022-07-01T15:18:12;1.80;;;1.00;;
40955;SDS011;26687;48.254;11.454;2022-07-01T15:21:12;1.00;;;1.00;;
40955;SDS011;26687;48.254;11.454;2022-07-01T15:24:12;1.43;;;0.90;;
40955;SDS011;26687;48.254;11.454;2022-07-01T15:27:12;0.70;;;0.70;;
40955;SDS011;26687;48.254;11.454;2022-07-01T15:30:12;0.85;;;0.70;;
40955;SDS011;26687;48.254;11.454;2022-07-01T15:33:13;0.57;;;0.52;;
40955;SDS011;26687;48.254;11.454;2022-07-01T15:36:13;0.80;;;0.60;;
40955;SDS011;26687;48.254;11.454;2022-07-01T15:39:14;0.70;;;0.70;;
40955;SDS011;26687;48.254;11.454;2022-07-01T15:42:15;0.90;;;0.90;;
40955;SDS011;26687;48.254;11.454;2022-07-01T15:45:15;1.63;;;0.80;;
40955;SDS011;26687;48.254;11.454;2022-07-01T15:48:15;1.20;;;0.98;;
40955;SDS011;26687;48.254;11.454;2022-07-01T15:51:15;1.02;;;0.93;;
40955;SDS011;26687;48.254;11.454;2022-07-01T15:54:15;1.30;;;1.03;;
40955;SDS011;26687;48.254;11.454;2022-07-01T15:57:16;2.43;;;0.80;;
40955;SDS011;26687;48.254;11.454;2022-07-01T16:00:16;1.67;;;0.90;;
40955;SDS011;26687;48.254;11.454;2022-07-01T16:03:16;1.17;;;0.80;;
40955;SDS011;26687;48.254;11.454;2022-07-01T16:06:17;0.77;;;0.77;;
40955;SDS011;26687;48.254;11.454;2022-07-01T16:09:18;0.98;;;0.88;;
40955;SDS011;26687;48.254;11.454;2022-07-01T16:12:18;1.20;;;0.80;;
40955;SDS011;26687;48.254;11.454;2022-07-01T16:15:20;0.73;;;0.73;;
40955;SDS011;26687;48.254;11.454;2022-07-01T16:18:23;0.88;;;0.65;;
40955;SDS011;26687;48.254;11.454;2022-07-01T16:21:23;2.00;;;0.98;;
40955;SDS011;26687;48.254;11.454;2022-07-01T16:24:24;1.00;;;0.90;;
40955;SDS011;26687;48.254;11.454;2022-07-01T16:27:24;1.20;;;0.70;;
40955;SDS011;26687;48.254;11.454;2022-07-01T16:30:24;1.02;;;0.93;;
40955;SDS011;26687;48.254;11.454;2022-07-01T16:36:29;0.80;;;0.70;;
40955;SDS011;26687;48.254;11.454;2022-07-01T16:39:29;0.70;;;0.70;;
40955;SDS011;26687;48.254;11.454;2022-07-01T16:42:30;1.08;;;0.90;;
40955;SDS011;26687;48.254;11.454;2022-07-01T16:45:37;0.57;;;0.57;;
40955;SDS011;26687;48.254;11.454;2022-07-01T16:48:37;1.15;;;0.70;;
40955;SDS011;26687;48.254;11.454;2022-07-01T16:51:39;0.70;;;0.70;;
40955;SDS011;26687;48.254;11.454;2022-07-01T16:54:40;0.90;;;0.70;;
40955;SDS011;26687;48.254;11.454;2022-07-01T16:57:46;0.82;;;0.80;;
40955;SDS011;26687;48.254;11.454;2022-07-01T17:00:47;0.68;;;0.68;;
40955;SDS011;26687;48.254;11.454;2022-07-01T17:03:47;2.57;;;0.70;;
40955;SDS011;26687;48.254;11.454;2022-07-01T17:06:47;0.77;;;0.60;;
40955;SDS011;26687;48.254;11.454;2022-07-01T17:09:48;0.55;;;0.40;;
40955;SDS011;26687;48.254;11.454;2022-07-01T17:12:49;0.60;;;0.60;;
40955;SDS011;26687;48.254;11.454;2022-07-01T17:15:50;0.50;;;0.50;;
40955;SDS011;26687;48.254;11.454;2022-07-01T17:18:51;0.40;;;0.40;;
40955;SDS011;26687;48.254;11.454;2022-07-01T17:21:53;0.45;;;0.40;;
40955;SDS011;26687;48.254;11.454;2022-07-01T17:31:18;0.65;;;0.60;;
40955;SDS011;26687;48.254;11.454;2022-07-01T17:34:25;0.90;;;0.52;;
40955;SDS011;26687;48.254;11.454;2022-07-01T17:37:26;0.57;;;0.50;;
40955;SDS011;26687;48.254;11.454;2022-07-01T17:40:29;0.40;;;0.40;;
40955;SDS011;26687;48.254;11.454;2022-07-01T17:43:32;0.93;;;0.70;;
40955;SDS011;26687;48.254;11.454;2022-07-01T17:46:33;0.43;;;0.43;;
40955;SDS011;26687;48.254;11.454;2022-07-01T17:49:34;0.95;;;0.60;;
40955;SDS011;26687;48.254;11.454;2022-07-01T17:52:37;0.70;;;0.60;;
40955;SDS011;26687;48.254;11.454;2022-07-01T17:55:37;1.50;;;0.73;;
40955;SDS011;26687;48.254;11.454;2022-07-01T17:58:41;1.48;;;0.50;;
40955;SDS011;26687;48.254;11.454;2022-07-01T18:01:45;0.65;;;0.50;;
40955;SDS011;26687;48.254;11.454;2022-07-01T18:04:45;2.15;;;0.40;;
40955;SDS011;26687;48.254;11.454;2022-07-01T18:07:47;0.30;;;0.22;;
40955;SDS011;26687;48.254;11.454;2022-07-01T18:10:54;0.30;;;0.20;;
40955;SDS011;26687;48.254;11.454;2022-07-01T18:23:36;1.70;;;0.40;;
40955;SDS011;26687;48.254;11.454;2022-07-01T18:26:43;0.40;;;0.35;;
40955;SDS011;26687;48.254;11.454;2022-07-01T18:29:47;0.50;;;0.30;;
40955;SDS011;26687;48.254;11.454;2022-07-01T18:32:47;0.40;;;0.40;;
40955;SDS011;26687;48.254;11.454;2022-07-01T18:35:47;1.17;;;0.20;;